Cottonwood Point, Missouri
Current Conditions -  °F | °C
As of 9:53 AM on Wednesday 22 Oct 2014 (Local Time) from KHKA Reporting Station
Clear Clear  
Wind Chill: 58°   Ceiling: Unl
Heat Index: 58°   Visibility: 10mi
Dew Point: 46°   Wind: 8mph
Humidity: 65%   Direction: 50°NE
Pressure: 30.28"   Gusts: NA
Location:  36.1543°N, 89.7088°W
Report Text: KHKA 221453Z AUTO 05007KT 10SM CLR 14/08 A3028 RMK AO2 SLP253 T01440078 51016
Loading
Personal Weather Stations






























Interactive Weather Map
Tropical Storm Tracking
New forecast layout! Learn more

10-Day Weather Forecast

Advertisements
Track Severe Weather on mobile